sensor_id;sensor_type;location;lat;lon;timestamp;pressure;altitude;pressure_sealevel;temperature;humidity
72548;BME280;60570;50.848;6.776;2023-07-29T00:00:56;99727.16;;;21.16;68.91
72548;BME280;60570;50.848;6.776;2023-07-29T00:01:58;99726.38;;;21.16;68.82
72548;BME280;60570;50.848;6.776;2023-07-29T00:02:58;99729.97;;;21.16;69.02
72548;BME280;60570;50.848;6.776;2023-07-29T00:04:00;99722.31;;;21.17;68.77
72548;BME280;60570;50.848;6.776;2023-07-29T00:05:02;99732.78;;;21.16;69.19
72548;BME280;60570;50.848;6.776;2023-07-29T00:06:04;99733.22;;;21.15;68.93
72548;BME280;60570;50.848;6.776;2023-07-29T00:07:04;99732.03;;;21.16;69.09
72548;BME280;60570;50.848;6.776;2023-07-29T00:08:06;99727.16;;;21.16;69.15
72548;BME280;60570;50.848;6.776;2023-07-29T00:09:06;99721.94;;;21.15;69.00
72548;BME280;60570;50.848;6.776;2023-07-29T00:10:08;99720.34;;;21.14;69.00
72548;BME280;60570;50.848;6.776;2023-07-29T00:11:08;99714.69;;;21.14;69.08
72548;BME280;60570;50.848;6.776;2023-07-29T00:12:10;99718.28;;;21.14;69.07
72548;BME280;60570;50.848;6.776;2023-07-29T00:13:10;99709.03;;;21.14;69.14
72548;BME280;60570;50.848;6.776;2023-07-29T00:14:12;99712.25;;;21.12;69.14
72548;BME280;60570;50.848;6.776;2023-07-29T00:15:12;99723.56;;;21.12;68.88
72548;BME280;60570;50.848;6.776;2023-07-29T00:16:16;99718.72;;;21.13;69.04
72548;BME280;60570;50.848;6.776;2023-07-29T00:17:17;99705.84;;;21.12;69.37
72548;BME280;60570;50.848;6.776;2023-07-29T00:18:20;99708.22;;;21.13;69.11
72548;BME280;60570;50.848;6.776;2023-07-29T00:19:20;99707.44;;;21.13;69.22
72548;BME280;60570;50.848;6.776;2023-07-29T00:20:25;99705.84;;;21.12;69.18
72548;BME280;60570;50.848;6.776;2023-07-29T00:21:25;99703.03;;;21.12;69.06
72548;BME280;60570;50.848;6.776;2023-07-29T00:22:27;99700.59;;;21.10;69.42
72548;BME280;60570;50.848;6.776;2023-07-29T00:23:28;99702.66;;;21.10;69.13
72548;BME280;60570;50.848;6.776;2023-07-29T00:24:30;99704.66;;;21.09;69.50
72548;BME280;60570;50.848;6.776;2023-07-29T00:25:31;99703.41;;;21.10;69.33
72548;BME280;60570;50.848;6.776;2023-07-29T00:26:32;99706.69;;;21.09;69.69
72548;BME280;60570;50.848;6.776;2023-07-29T00:27:33;99696.19;;;21.09;69.18
72548;BME280;60570;50.848;6.776;2023-07-29T00:28:35;99694.56;;;21.08;69.31
72548;BME280;60570;50.848;6.776;2023-07-29T00:29:35;99695.38;;;21.09;69.37
72548;BME280;60570;50.848;6.776;2023-07-29T00:30:37;99697.81;;;21.07;69.22
72548;BME280;60570;50.848;6.776;2023-07-29T00:31:37;99705.09;;;21.08;69.29
72548;BME280;60570;50.848;6.776;2023-07-29T00:32:39;99698.63;;;21.07;69.39
72548;BME280;60570;50.848;6.776;2023-07-29T00:33:39;99705.09;;;21.08;69.19
72548;BME280;60570;50.848;6.776;2023-07-29T00:34:41;99699.84;;;21.06;69.42
72548;BME280;60570;50.848;6.776;2023-07-29T00:35:43;99698.63;;;21.07;69.05
72548;BME280;60570;50.848;6.776;2023-07-29T00:36:45;99705.09;;;21.08;69.34
72548;BME280;60570;50.848;6.776;2023-07-29T00:37:45;99704.72;;;21.06;69.43
72548;BME280;60570;50.848;6.776;2023-07-29T00:38:47;99701.47;;;21.07;69.26
72548;BME280;60570;50.848;6.776;2023-07-29T00:39:47;99705.50;;;21.06;69.33
72548;BME280;60570;50.848;6.776;2023-07-29T00:40:49;99703.91;;;21.05;69.50
72548;BME280;60570;50.848;6.776;2023-07-29T00:41:50;99700.28;;;21.05;69.39
72548;BME280;60570;50.848;6.776;2023-07-29T00:42:51;99706.31;;;21.07;69.06
72548;BME280;60570;50.848;6.776;2023-07-29T00:43:52;99705.50;;;21.06;69.35
72548;BME280;60570;50.848;6.776;2023-07-29T00:44:53;99696.25;;;21.06;69.54
72548;BME280;60570;50.848;6.776;2023-07-29T00:45:54;99692.25;;;21.03;69.57
72548;BME280;60570;50.848;6.776;2023-07-29T00:46:57;99687.41;;;21.04;69.33
72548;BME280;60570;50.848;6.776;2023-07-29T00:47:58;99684.56;;;21.04;69.43
72548;BME280;60570;50.848;6.776;2023-07-29T00:48:59;99687.41;;;21.04;69.55
72548;BME280;60570;50.848;6.776;2023-07-29T00:50:01;99693.81;;;21.04;69.51
72548;BME280;60570;50.848;6.776;2023-07-29T00:51:03;99687.41;;;21.04;69.58
72548;BME280;60570;50.848;6.776;2023-07-29T00:52:05;99688.97;;;21.05;69.48
72548;BME280;60570;50.848;6.776;2023-07-29T00:53:06;99690.22;;;21.04;69.65
72548;BME280;60570;50.848;6.776;2023-07-29T00:54:07;99690.22;;;21.04;69.31
72548;BME280;60570;50.848;6.776;2023-07-29T00:55:08;99678.91;;;21.04;69.24
72548;BME280;60570;50.848;6.776;2023-07-29T00:56:09;99687.41;;;21.04;69.28
72548;BME280;60570;50.848;6.776;2023-07-29T00:57:10;99690.22;;;21.04;69.55
72548;BME280;60570;50.848;6.776;2023-07-29T00:58:13;99682.19;;;21.02;69.43
72548;BME280;60570;50.848;6.776;2023-07-29T00:59:14;99682.97;;;21.03;69.23
72548;BME280;60570;50.848;6.776;2023-07-29T01:00:16;99686.59;;;21.03;69.57
72548;BME280;60570;50.848;6.776;2023-07-29T01:01:17;99685.00;;;21.02;69.47
72548;BME280;60570;50.848;6.776;2023-07-29T01:02:21;99680.13;;;21.03;69.56
72548;BME280;60570;50.848;6.776;2023-07-29T01:03:22;99687.03;;;21.02;69.38
72548;BME280;60570;50.848;6.776;2023-07-29T01:04:24;99679.34;;;21.02;69.63
72548;BME280;60570;50.848;6.776;2023-07-29T01:05:25;99679.75;;;21.01;69.48
72548;BME280;60570;50.848;6.776;2023-07-29T01:06:36;99678.53;;;21.02;69.53
72548;BME280;60570;50.848;6.776;2023-07-29T01:07:42;99671.28;;;21.01;69.48
72548;BME280;60570;50.848;6.776;2023-07-29T01:08:46;99673.72;;;21.02;69.44
72548;BME280;60570;50.848;6.776;2023-07-29T01:09:55;99667.66;;;21.00;69.50
72548;BME280;60570;50.848;6.776;2023-07-29T01:10:58;99670.06;;;21.02;69.49
72548;BME280;60570;50.848;6.776;2023-07-29T01:12:04;99670.06;;;21.02;69.55
72548;BME280;60570;50.848;6.776;2023-07-29T01:13:10;99670.47;;;21.00;69.42
72548;BME280;60570;50.848;6.776;2023-07-29T01:14:16;99664.03;;;21.00;69.67
72548;BME280;60570;50.848;6.776;2023-07-29T01:15:22;99664.44;;;20.98;69.63
72548;BME280;60570;50.848;6.776;2023-07-29T01:16:25;99661.63;;;20.98;69.38
72548;BME280;60570;50.848;6.776;2023-07-29T01:17:33;99671.69;;;20.99;69.39
72548;BME280;60570;50.848;6.776;2023-07-29T01:18:35;99670.47;;;21.00;69.36
72548;BME280;60570;50.848;6.776;2023-07-29T01:19:48;99672.50;;;21.00;69.39
72548;BME280;60570;50.848;6.776;2023-07-29T01:20:54;99665.22;;;20.99;69.40
72548;BME280;60570;50.848;6.776;2023-07-29T01:22:00;99664.44;;;20.98;69.21
72548;BME280;60570;50.848;6.776;2023-07-29T01:23:01;99660.81;;;20.98;69.17
72548;BME280;60570;50.848;6.776;2023-07-29T01:24:04;99670.09;;;20.98;69.42
72548;BME280;60570;50.848;6.776;2023-07-29T01:25:05;99669.28;;;20.98;69.17
72548;BME280;60570;50.848;6.776;2023-07-29T01:26:06;99678.97;;;20.97;69.52
72548;BME280;60570;50.848;6.776;2023-07-29T01:27:07;99666.53;;;20.94;69.65
72548;BME280;60570;50.848;6.776;2023-07-29T01:28:08;99666.53;;;20.94;69.82
72548;BME280;60570;50.848;6.776;2023-07-29T01:29:09;99664.09;;;20.93;69.88
72548;BME280;60570;50.848;6.776;2023-07-29T01:30:10;99662.09;;;20.93;69.73
72548;BME280;60570;50.848;6.776;2023-07-29T01:31:12;99655.63;;;20.93;69.76
72548;BME280;60570;50.848;6.776;2023-07-29T01:32:17;99644.34;;;20.93;70.00
72548;BME280;60570;50.848;6.776;2023-07-29T01:33:20;99651.22;;;20.92;69.65
72548;BME280;60570;50.848;6.776;2023-07-29T01:34:26;99652.03;;;20.92;69.76
72548;BME280;60570;50.848;6.776;2023-07-29T01:35:31;99643.56;;;20.92;70.07
72548;BME280;60570;50.848;6.776;2023-07-29T01:36:33;99654.06;;;20.92;69.97
72548;BME280;60570;50.848;6.776;2023-07-29T01:37:38;99658.88;;;20.91;69.99
72548;BME280;60570;50.848;6.776;2023-07-29T01:38:42;99656.88;;;20.92;70.19
72548;BME280;60570;50.848;6.776;2023-07-29T01:39:45;99666.56;;;20.91;70.02
72548;BME280;60570;50.848;6.776;2023-07-29T01:40:47;99678.22;;;20.93;70.05
72548;BME280;60570;50.848;6.776;2023-07-29T01:41:48;99688.75;;;20.92;70.03
72548;BME280;60570;50.848;6.776;2023-07-29T01:42:51;99706.47;;;20.93;69.79
72548;BME280;60570;50.848;6.776;2023-07-29T01:43:51;99717.00;;;20.92;69.88
72548;BME280;60570;50.848;6.776;2023-07-29T01:44:53;99727.47;;;20.92;69.88
72548;BME280;60570;50.848;6.776;2023-07-29T01:45:54;99706.09;;;20.91;69.89
72548;BME280;60570;50.848;6.776;2023-07-29T01:46:55;99691.97;;;20.91;69.96
72548;BME280;60570;50.848;6.776;2023-07-29T01:47:56;99691.19;;;20.90;69.87
72548;BME280;60570;50.848;6.776;2023-07-29T01:48:57;99682.78;;;20.87;69.95
72548;BME280;60570;50.848;6.776;2023-07-29T01:49:58;99685.22;;;20.85;70.26
72548;BME280;60570;50.848;6.776;2023-07-29T01:50:59;99688.81;;;20.85;70.28
72548;BME280;60570;50.848;6.776;2023-07-29T01:52:00;99686.38;;;20.87;70.10
72548;BME280;60570;50.848;6.776;2023-07-29T01:53:02;99692.47;;;20.86;70.23
72548;BME280;60570;50.848;6.776;2023-07-29T01:54:02;99683.19;;;20.85;70.24
72548;BME280;60570;50.848;6.776;2023-07-29T01:55:06;99686.00;;;20.85;70.26
72548;BME280;60570;50.848;6.776;2023-07-29T01:56:07;99688.06;;;20.85;70.61
72548;BME280;60570;50.848;6.776;2023-07-29T01:57:08;99684.41;;;20.84;70.64
72548;BME280;60570;50.848;6.776;2023-07-29T01:58:09;99683.59;;;20.84;70.81
72548;BME280;60570;50.848;6.776;2023-07-29T01:59:09;99675.56;;;20.82;70.60
72548;BME280;60570;50.848;6.776;2023-07-29T02:00:11;99669.94;;;20.82;70.49
72548;BME280;60570;50.848;6.776;2023-07-29T02:01:12;99658.19;;;20.84;70.29
72548;BME280;60570;50.848;6.776;2023-07-29T02:02:13;99665.88;;;20.83;70.23
72548;BME280;60570;50.848;6.776;2023-07-29T02:03:14;99665.09;;;20.83;70.53
72548;BME280;60570;50.848;6.776;2023-07-29T02:04:16;99656.63;;;20.83;70.73
72548;BME280;60570;50.848;6.776;2023-07-29T02:05:16;99662.25;;;20.83;70.48
72548;BME280;60570;50.848;6.776;2023-07-29T02:06:18;99669.50;;;20.84;70.60
72548;BME280;60570;50.848;6.776;2023-07-29T02:07:18;99664.28;;;20.82;70.39
72548;BME280;60570;50.848;6.776;2023-07-29T02:08:20;99663.03;;;20.83;70.52
72548;BME280;60570;50.848;6.776;2023-07-29T02:09:20;99669.94;;;20.82;70.62
72548;BME280;60570;50.848;6.776;2023-07-29T02:10:26;99667.09;;;20.82;70.45
72548;BME280;60570;50.848;6.776;2023-07-29T02:11:27;99674.75;;;20.82;70.32
72548;BME280;60570;50.848;6.776;2023-07-29T02:12:28;99676.38;;;20.83;70.67
72548;BME280;60570;50.848;6.776;2023-07-29T02:13:29;99676.38;;;20.83;70.30
72548;BME280;60570;50.848;6.776;2023-07-29T02:14:30;99669.94;;;20.82;70.62
72548;BME280;60570;50.848;6.776;2023-07-29T02:15:31;99665.88;;;20.83;70.51
72548;BME280;60570;50.848;6.776;2023-07-29T02:16:33;99661.47;;;20.82;70.23
72548;BME280;60570;50.848;6.776;2023-07-29T02:17:34;99652.19;;;20.82;70.49
72548;BME280;60570;50.848;6.776;2023-07-29T02:18:36;99658.63;;;20.82;70.15
72548;BME280;60570;50.848;6.776;2023-07-29T02:19:37;99652.19;;;20.82;70.31
72548;BME280;60570;50.848;6.776;2023-07-29T02:20:38;99648.53;;;20.81;70.16
72548;BME280;60570;50.848;6.776;2023-07-29T02:21:39;99650.59;;;20.81;70.52
72548;BME280;60570;50.848;6.776;2023-07-29T02:22:40;99653.41;;;20.81;70.48
72548;BME280;60570;50.848;6.776;2023-07-29T02:23:41;99654.19;;;20.81;70.64
72548;BME280;60570;50.848;6.776;2023-07-29T02:24:42;99661.06;;;20.80;70.33
72548;BME280;60570;50.848;6.776;2023-07-29T02:25:45;99661.88;;;20.81;70.38
72548;BME280;60570;50.848;6.776;2023-07-29T02:26:45;99657.03;;;20.81;70.65
72548;BME280;60570;50.848;6.776;2023-07-29T02:27:47;99657.81;;;20.82;70.43
72548;BME280;60570;50.848;6.776;2023-07-29T02:28:47;99652.19;;;20.82;70.29
72548;BME280;60570;50.848;6.776;2023-07-29T02:29:49;99647.78;;;20.81;70.58
72548;BME280;60570;50.848;6.776;2023-07-29T02:30:54;99651.81;;;20.80;70.17
72548;BME280;60570;50.848;6.776;2023-07-29T02:32:10;99660.28;;;20.80;70.62
72548;BME280;60570;50.848;6.776;2023-07-29T02:33:10;99658.25;;;20.80;70.43
72548;BME280;60570;50.848;6.776;2023-07-29T02:34:12;99665.91;;;20.80;70.49
72548;BME280;60570;50.848;6.776;2023-07-29T02:35:13;99663.53;;;20.78;70.28
72548;BME280;60570;50.848;6.776;2023-07-29T02:36:14;99659.91;;;20.78;70.48
72548;BME280;60570;50.848;6.776;2023-07-29T02:37:15;99661.13;;;20.77;70.41
72548;BME280;60570;50.848;6.776;2023-07-29T02:38:16;99656.25;;;20.77;70.33
72548;BME280;60570;50.848;6.776;2023-07-29T02:39:17;99659.09;;;20.77;70.75
72548;BME280;60570;50.848;6.776;2023-07-29T02:40:18;99661.13;;;20.77;70.50
72548;BME280;60570;50.848;6.776;2023-07-29T02:41:22;99663.97;;;20.77;70.41
72548;BME280;60570;50.848;6.776;2023-07-29T02:42:26;99677.66;;;20.78;70.37
72548;BME280;60570;50.848;6.776;2023-07-29T02:43:26;99665.53;;;20.78;70.82
72548;BME280;60570;50.848;6.776;2023-07-29T02:44:27;99665.97;;;20.76;70.58
72548;BME280;60570;50.848;6.776;2023-07-29T02:45:28;99672.44;;;20.77;70.48
72548;BME280;60570;50.848;6.776;2023-07-29T02:46:29;99665.97;;;20.76;70.51
72548;BME280;60570;50.848;6.776;2023-07-29T02:47:31;99666.78;;;20.77;70.21
72548;BME280;60570;50.848;6.776;2023-07-29T02:48:31;99665.97;;;20.76;70.65
72548;BME280;60570;50.848;6.776;2023-07-29T02:49:32;99665.97;;;20.76;70.55
72548;BME280;60570;50.848;6.776;2023-07-29T02:50:34;99668.00;;;20.76;70.45
72548;BME280;60570;50.848;6.776;2023-07-29T02:51:34;99668.81;;;20.76;70.41
72548;BME280;60570;50.848;6.776;2023-07-29T02:52:36;99677.28;;;20.76;70.32
72548;BME280;60570;50.848;6.776;2023-07-29T02:53:36;99677.28;;;20.76;70.50
72548;BME280;60570;50.848;6.776;2023-07-29T02:54:38;99682.91;;;20.76;70.48
72548;BME280;60570;50.848;6.776;2023-07-29T02:55:39;99676.47;;;20.76;70.51
72548;BME280;60570;50.848;6.776;2023-07-29T02:56:42;99682.09;;;20.76;70.57
72548;BME280;60570;50.848;6.776;2023-07-29T02:57:42;99685.75;;;20.76;70.52
72548;BME280;60570;50.848;6.776;2023-07-29T02:58:44;99678.84;;;20.77;70.39
72548;BME280;60570;50.848;6.776;2023-07-29T02:59:44;99671.63;;;20.76;70.52
72548;BME280;60570;50.848;6.776;2023-07-29T03:00:46;99666.41;;;20.75;70.28
72548;BME280;60570;50.848;6.776;2023-07-29T03:01:48;99665.16;;;20.76;70.18
72548;BME280;60570;50.848;6.776;2023-07-29T03:02:49;99670.81;;;20.76;70.42
72548;BME280;60570;50.848;6.776;2023-07-29T03:03:51;99663.59;;;20.75;70.52
72548;BME280;60570;50.848;6.776;2023-07-29T03:04:51;99665.59;;;20.74;70.35
72548;BME280;60570;50.848;6.776;2023-07-29T03:05:56;99663.22;;;20.73;70.34
72548;BME280;60570;50.848;6.776;2023-07-29T03:06:57;99659.56;;;20.72;70.42
72548;BME280;60570;50.848;6.776;2023-07-29T03:07:59;99663.22;;;20.73;70.23
72548;BME280;60570;50.848;6.776;2023-07-29T03:09:00;99654.75;;;20.73;70.37
72548;BME280;60570;50.848;6.776;2023-07-29T03:10:01;99660.38;;;20.73;70.49
72548;BME280;60570;50.848;6.776;2023-07-29T03:11:05;99654.75;;;20.73;70.30
72548;BME280;60570;50.848;6.776;2023-07-29T03:12:08;99650.31;;;20.72;70.44
72548;BME280;60570;50.848;6.776;2023-07-29T03:13:09;99660.00;;;20.71;70.71
72548;BME280;60570;50.848;6.776;2023-07-29T03:14:11;99656.38;;;20.70;70.32
72548;BME280;60570;50.848;6.776;2023-07-29T03:15:11;99664.84;;;20.70;70.32
72548;BME280;60570;50.848;6.776;2023-07-29T03:16:13;99658.81;;;20.68;70.40
72548;BME280;60570;50.848;6.776;2023-07-29T03:17:14;99657.63;;;20.69;70.54
72548;BME280;60570;50.848;6.776;2023-07-29T03:18:16;99656.00;;;20.68;70.68
72548;BME280;60570;50.848;6.776;2023-07-29T03:19:16;99658.03;;;20.68;70.64
72548;BME280;60570;50.848;6.776;2023-07-29T03:20:19;99657.63;;;20.69;70.64
72548;BME280;60570;50.848;6.776;2023-07-29T03:21:20;99655.19;;;20.68;70.62
72548;BME280;60570;50.848;6.776;2023-07-29T03:22:21;99655.56;;;20.70;70.78
72548;BME280;60570;50.848;6.776;2023-07-29T03:23:22;99649.53;;;20.68;70.68
72548;BME280;60570;50.848;6.776;2023-07-29T03:24:23;99652.38;;;20.68;70.71
72548;BME280;60570;50.848;6.776;2023-07-29T03:25:24;99647.53;;;20.68;70.55
72548;BME280;60570;50.848;6.776;2023-07-29T03:26:26;99648.78;;;20.67;70.57
72548;BME280;60570;50.848;6.776;2023-07-29T03:27:28;99651.97;;;20.69;70.50
72548;BME280;60570;50.848;6.776;2023-07-29T03:28:31;99650.34;;;20.68;70.63
72548;BME280;60570;50.848;6.776;2023-07-29T03:29:32;99663.66;;;20.68;70.55
72548;BME280;60570;50.848;6.776;2023-07-29T03:30:34;99662.88;;;20.67;70.51
72548;BME280;60570;50.848;6.776;2023-07-29T03:31:34;99668.53;;;20.67;70.53
72548;BME280;60570;50.848;6.776;2023-07-29T03:32:39;99666.09;;;20.66;70.99
72548;BME280;60570;50.848;6.776;2023-07-29T03:33:39;99666.91;;;20.66;70.84
72548;BME280;60570;50.848;6.776;2023-07-29T03:34:41;99665.34;;;20.65;70.61
72548;BME280;60570;50.848;6.776;2023-07-29T03:35:41;99656.06;;;20.65;70.75
72548;BME280;60570;50.848;6.776;2023-07-29T03:36:44;99652.44;;;20.64;70.59
72548;BME280;60570;50.848;6.776;2023-07-29T03:37:48;99649.59;;;20.64;70.65
72548;BME280;60570;50.848;6.776;2023-07-29T03:38:48;99651.63;;;20.64;70.82
72548;BME280;60570;50.848;6.776;2023-07-29T03:39:50;99658.50;;;20.63;70.70
72548;BME280;60570;50.848;6.776;2023-07-29T03:40:52;99653.22;;;20.65;70.76
72548;BME280;60570;50.848;6.776;2023-07-29T03:41:53;99650.03;;;20.63;70.87
72548;BME280;60570;50.848;6.776;2023-07-29T03:42:55;99643.16;;;20.64;70.80
72548;BME280;60570;50.848;6.776;2023-07-29T03:43:57;99638.75;;;20.63;70.67
72548;BME280;60570;50.848;6.776;2023-07-29T03:44:57;99630.28;;;20.63;70.68
72548;BME280;60570;50.848;6.776;2023-07-29T03:45:59;99638.75;;;20.63;70.85
72548;BME280;60570;50.848;6.776;2023-07-29T03:47:00;99633.09;;;20.63;70.60
72548;BME280;60570;50.848;6.776;2023-07-29T03:48:02;99632.28;;;20.62;70.62
72548;BME280;60570;50.848;6.776;2023-07-29T03:49:03;99632.28;;;20.62;70.97
72548;BME280;60570;50.848;6.776;2023-07-29T03:50:05;99633.53;;;20.61;70.78
72548;BME280;60570;50.848;6.776;2023-07-29T03:51:05;99634.31;;;20.62;70.71
72548;BME280;60570;50.848;6.776;2023-07-29T03:52:07;99644.00;;;20.61;70.82
72548;BME280;60570;50.848;6.776;2023-07-29T03:53:07;99648.41;;;20.62;70.78
72548;BME280;60570;50.848;6.776;2023-07-29T03:54:10;99645.59;;;20.62;70.79
72548;BME280;60570;50.848;6.776;2023-07-29T03:55:10;99658.50;;;20.63;70.66
72548;BME280;60570;50.848;6.776;2023-07-29T03:56:12;99651.66;;;20.60;70.83
72548;BME280;60570;50.848;6.776;2023-07-29T03:57:12;99663.78;;;20.61;70.81
72548;BME280;60570;50.848;6.776;2023-07-29T03:58:15;99670.66;;;20.60;70.50
72548;BME280;60570;50.848;6.776;2023-07-29T03:59:16;99673.88;;;20.58;70.81
72548;BME280;60570;50.848;6.776;2023-07-29T04:00:18;99665.41;;;20.58;70.77
72548;BME280;60570;50.848;6.776;2023-07-29T04:01:18;99673.09;;;20.58;70.63
72548;BME280;60570;50.848;6.776;2023-07-29T04:02:20;99678.31;;;20.59;70.91
72548;BME280;60570;50.848;6.776;2023-07-29T04:03:21;99666.22;;;20.59;70.66
72548;BME280;60570;50.848;6.776;2023-07-29T04:04:21;99663.03;;;20.57;71.00
72548;BME280;60570;50.848;6.776;2023-07-29T04:05:23;99660.19;;;20.57;70.87
72548;BME280;60570;50.848;6.776;2023-07-29T04:06:23;99661.44;;;20.56;70.79
72548;BME280;60570;50.848;6.776;2023-07-29T04:07:25;99661.84;;;20.54;71.00
72548;BME280;60570;50.848;6.776;2023-07-29T04:08:26;99666.28;;;20.55;70.89
72548;BME280;60570;50.848;6.776;2023-07-29T04:09:27;99665.03;;;20.56;71.01
72548;BME280;60570;50.848;6.776;2023-07-29T04:10:28;99670.69;;;20.56;71.00
72548;BME280;60570;50.848;6.776;2023-07-29T04:11:32;99671.91;;;20.55;70.97
72548;BME280;60570;50.848;6.776;2023-07-29T04:12:32;99679.56;;;20.54;70.94
72548;BME280;60570;50.848;6.776;2023-07-29T04:13:35;99664.66;;;20.54;70.80
72548;BME280;60570;50.848;6.776;2023-07-29T04:14:37;99666.69;;;20.53;71.17
72548;BME280;60570;50.848;6.776;2023-07-29T04:15:39;99673.13;;;20.54;70.88
72548;BME280;60570;50.848;6.776;2023-07-29T04:16:40;99672.34;;;20.53;70.78
72548;BME280;60570;50.848;6.776;2023-07-29T04:17:41;99673.56;;;20.52;70.92
72548;BME280;60570;50.848;6.776;2023-07-29T04:18:42;99661.44;;;20.52;70.92
72548;BME280;60570;50.848;6.776;2023-07-29T04:19:43;99664.28;;;20.52;70.80
72548;BME280;60570;50.848;6.776;2023-07-29T04:20:44;99661.44;;;20.52;70.90
72548;BME280;60570;50.848;6.776;2023-07-29T04:21:45;99654.22;;;20.51;70.96
72548;BME280;60570;50.848;6.776;2023-07-29T04:22:46;99671.97;;;20.51;71.12
72548;BME280;60570;50.848;6.776;2023-07-29T04:23:48;99669.16;;;20.51;70.86
72548;BME280;60570;50.848;6.776;2023-07-29T04:24:48;99670.34;;;20.50;71.06
72548;BME280;60570;50.848;6.776;2023-07-29T04:25:50;99672.38;;;20.50;71.03
72548;BME280;60570;50.848;6.776;2023-07-29T04:26:51;99669.16;;;20.51;71.08
72548;BME280;60570;50.848;6.776;2023-07-29T04:27:53;99678.81;;;20.50;70.81
72548;BME280;60570;50.848;6.776;2023-07-29T04:28:55;99682.88;;;20.49;70.93
72548;BME280;60570;50.848;6.776;2023-07-29T04:29:58;99680.84;;;20.50;71.02
72548;BME280;60570;50.848;6.776;2023-07-29T04:30:59;99680.06;;;20.49;70.68
72548;BME280;60570;50.848;6.776;2023-07-29T04:32:00;99679.25;;;20.49;70.96
72548;BME280;60570;50.848;6.776;2023-07-29T04:33:02;99685.69;;;20.49;71.03
72548;BME280;60570;50.848;6.776;2023-07-29T04:34:04;99702.63;;;20.49;71.11
72548;BME280;60570;50.848;6.776;2023-07-29T04:35:05;99690.97;;;20.47;71.04
72548;BME280;60570;50.848;6.776;2023-07-29T04:36:07;99693.78;;;20.47;71.02
72548;BME280;60570;50.848;6.776;2023-07-29T04:37:08;99697.81;;;20.46;71.26
72548;BME280;60570;50.848;6.776;2023-07-29T04:38:09;99703.84;;;20.48;71.21
72548;BME280;60570;50.848;6.776;2023-07-29T04:39:09;99705.84;;;20.48;70.81
72548;BME280;60570;50.848;6.776;2023-07-29T04:40:11;99700.63;;;20.46;71.10
72548;BME280;60570;50.848;6.776;2023-07-29T04:41:12;99706.28;;;20.46;70.95
72548;BME280;60570;50.848;6.776;2023-07-29T04:42:13;99694.19;;;20.46;71.06
72548;BME280;60570;50.848;6.776;2023-07-29T04:43:14;99704.69;;;20.45;71.08
72548;BME280;60570;50.848;6.776;2023-07-29T04:44:17;99702.66;;;20.46;71.17
72548;BME280;60570;50.848;6.776;2023-07-29T04:45:17;99692.59;;;20.45;70.81
72548;BME280;60570;50.848;6.776;2023-07-29T04:46:19;99700.25;;;20.44;71.01
72548;BME280;60570;50.848;6.776;2023-07-29T04:47:19;99688.97;;;20.44;70.99
72548;BME280;60570;50.848;6.776;2023-07-29T04:48:21;99696.22;;;20.45;71.18
72548;BME280;60570;50.848;6.776;2023-07-29T04:49:21;99693.03;;;20.43;71.10
72548;BME280;60570;50.848;6.776;2023-07-29T04:50:23;99695.41;;;20.45;71.03
72548;BME280;60570;50.848;6.776;2023-07-29T04:51:24;99691.00;;;20.44;71.18
72548;BME280;60570;50.848;6.776;2023-07-29T04:52:25;99699.88;;;20.42;70.97
72548;BME280;60570;50.848;6.776;2023-07-29T04:53:26;99698.66;;;20.43;70.95
72548;BME280;60570;50.848;6.776;2023-07-29T04:54:27;99699.88;;;20.42;71.23
72548;BME280;60570;50.848;6.776;2023-07-29T04:55:28;99702.69;;;20.42;71.08
72548;BME280;60570;50.848;6.776;2023-07-29T04:56:29;99704.75;;;20.42;71.01
72548;BME280;60570;50.848;6.776;2023-07-29T04:57:30;99699.09;;;20.42;71.07
72548;BME280;60570;50.848;6.776;2023-07-29T04:58:32;99702.69;;;20.42;71.08
72548;BME280;60570;50.848;6.776;2023-07-29T04:59:36;99697.47;;;20.41;71.22
72548;BME280;60570;50.848;6.776;2023-07-29T05:00:38;99694.66;;;20.41;71.33
72548;BME280;60570;50.848;6.776;2023-07-29T05:01:38;99695.09;;;20.39;71.05
72548;BME280;60570;50.848;6.776;2023-07-29T05:02:42;99689.00;;;20.41;71.06
72548;BME280;60570;50.848;6.776;2023-07-29T05:03:42;99689.00;;;20.41;71.23
72548;BME280;60570;50.848;6.776;2023-07-29T05:04:44;99685.38;;;20.40;70.89
72548;BME280;60570;50.848;6.776;2023-07-29T05:05:45;99683.38;;;20.41;71.09
72548;BME280;60570;50.848;6.776;2023-07-29T05:06:46;99680.56;;;20.41;71.09
72548;BME280;60570;50.848;6.776;2023-07-29T05:07:47;99682.56;;;20.40;71.08
72548;BME280;60570;50.848;6.776;2023-07-29T05:08:48;99684.59;;;20.40;71.11
72548;BME280;60570;50.848;6.776;2023-07-29T05:09:49;99687.44;;;20.40;71.13
72548;BME280;60570;50.848;6.776;2023-07-29T05:10:50;99680.97;;;20.39;70.98
72548;BME280;60570;50.848;6.776;2023-07-29T05:11:51;99686.63;;;20.39;71.37
72548;BME280;60570;50.848;6.776;2023-07-29T05:12:53;99680.97;;;20.39;71.01
72548;BME280;60570;50.848;6.776;2023-07-29T05:13:53;99680.16;;;20.39;71.39
72548;BME280;60570;50.848;6.776;2023-07-29T05:14:56;99670.91;;;20.38;71.05
72548;BME280;60570;50.848;6.776;2023-07-29T05:15:57;99676.53;;;20.38;71.16
72548;BME280;60570;50.848;6.776;2023-07-29T05:16:58;99682.19;;;20.38;71.02
72548;BME280;60570;50.848;6.776;2023-07-29T05:17:59;99689.88;;;20.38;71.24
72548;BME280;60570;50.848;6.776;2023-07-29T05:19:01;99691.88;;;20.37;71.36
72548;BME280;60570;50.848;6.776;2023-07-29T05:20:01;99690.28;;;20.36;71.26
72548;BME280;60570;50.848;6.776;2023-07-29T05:21:03;99689.06;;;20.37;71.26
72548;BME280;60570;50.848;6.776;2023-07-29T05:22:04;99691.88;;;20.37;71.24
72548;BME280;60570;50.848;6.776;2023-07-29T05:23:06;99689.06;;;20.37;71.15
72548;BME280;60570;50.848;6.776;2023-07-29T05:24:07;99698.75;;;20.36;71.19
72548;BME280;60570;50.848;6.776;2023-07-29T05:25:08;99692.31;;;20.36;71.17
72548;BME280;60570;50.848;6.776;2023-07-29T05:26:09;99695.13;;;20.36;71.27
72548;BME280;60570;50.848;6.776;2023-07-29T05:27:10;99695.13;;;20.36;71.17